Time;durP1;ratioP1;P1;durP2;ratioP2;P2;SDS_P1;SDS_P2;PMS_P1;PMS_P2;Temp;Humidity;BMP_temperature;BMP_pressure;BME280_temperature;BME280_humidity;BME280_pressure;Samples;Min_cycle;Max_cycle;Signal;HPM_P1;HPM_P2
2024/02/19 00:01:22;;;;;;;102.88;57.53;;;;;;;13.22;66.87;101755.47;4897606;29;20764;-81
2024/02/19 00:04:16;;;;;;;102.80;58.27;;;;;;;13.04;67.94;101764.59;4885989;29;20041;-80
2024/02/19 00:07:11;;;;;;;80.88;47.38;;;;;;;12.98;68.69;101765.81;4889018;29;20049;-80
2024/02/19 00:10:06;;;;;;;100.38;58.65;;;;;;;13.05;68.03;101761.56;4898234;29;20044;-81
2024/02/19 00:13:06;;;;;;;96.53;56.87;;;;;;;13.09;67.63;101756.28;4898464;29;20237;-81
2024/02/19 00:16:01;;;;;;;89.68;56.75;;;;;;;13.16;67.41;101752.03;4874326;29;20049;-80
2024/02/19 00:18:56;;;;;;;93.70;56.95;;;;;;;13.03;67.87;101752.88;4887877;29;20049;-81
2024/02/19 00:21:50;;;;;;;78.05;46.00;;;;;;;13.01;67.56;101754.28;4898348;29;20513;-81
2024/02/19 00:24:45;;;;;;;105.33;57.73;;;;;;;13.02;68.03;101753.97;4879974;29;20041;-81
2024/02/19 00:27:39;;;;;;;95.80;57.40;;;;;;;13.07;68.81;101759.31;4889014;29;20277;-80
2024/02/19 00:30:29;;;;;;;76.17;44.27;;;;;;;13.10;68.55;101761.47;4893722;29;20403;-82
2024/02/19 00:33:23;;;;;;;92.60;55.25;;;;;;;13.08;68.71;101766.41;4903510;29;20048;-81
2024/02/19 00:36:18;;;;;;;69.25;41.17;;;;;;;12.89;69.26;101763.00;4904896;29;20049;-81
2024/02/19 00:39:13;;;;;;;96.47;53.85;;;;;;;12.86;69.77;101758.94;4903577;29;20049;-81
2024/02/19 00:42:02;;;;;;;88.13;50.95;;;;;;;12.96;68.96;101747.00;4897422;29;20045;-80
2024/02/19 00:44:57;;;;;;;85.13;52.83;;;;;;;13.01;69.23;101751.53;4881733;29;20049;-81
2024/02/19 00:47:52;;;;;;;98.13;53.65;;;;;;;13.13;68.80;101744.47;4891478;29;20060;-81
2024/02/19 00:50:46;;;;;;;71.47;41.55;;;;;;;13.16;68.51;101708.34;4886436;29;20044;-81
2024/02/19 00:53:42;;;;;;;66.90;37.00;;;;;;;13.27;67.58;101671.50;4888996;29;20040;-81
2024/02/19 00:56:34;;;;;;;86.45;50.95;;;;;;;13.14;67.47;101699.69;4870668;29;20048;-81
2024/02/19 00:59:28;;;;;;;76.63;47.57;;;;;;;13.26;68.42;101729.16;4885677;29;20049;-82
2024/02/19 01:02:23;;;;;;;81.47;47.38;;;;;;;13.19;68.83;101729.59;4888203;29;20040;-82
2024/02/19 01:05:17;;;;;;;72.55;39.67;;;;;;;13.03;68.75;101713.81;4886357;29;20041;-80
2024/02/19 01:08:07;;;;;;;77.53;47.72;;;;;;;13.00;68.33;101706.25;4886108;29;20494;-81
2024/02/19 01:10:59;;;;;;;94.53;49.05;;;;;;;12.91;68.84;101700.69;4895112;29;20418;-81
2024/02/19 01:13:51;;;;;;;76.82;46.13;;;;;;;12.89;69.56;101696.69;4895506;29;20044;-82
2024/02/19 01:16:46;;;;;;;81.10;48.45;;;;;;;12.88;69.98;101700.50;4887831;29;20415;-81
2024/02/19 01:19:41;;;;;;;72.93;43.80;;;;;;;12.88;68.79;101684.94;4890980;29;20037;-82
2024/02/19 01:22:40;;;;;;;72.03;42.53;;;;;;;13.03;68.59;101676.41;4881895;29;20284;-82
2024/02/19 01:25:35;;;;;;;76.53;45.60;;;;;;;13.08;68.30;101659.91;4886515;29;20040;-81
2024/02/19 01:28:30;;;;;;;55.45;33.83;;;;;;;13.17;67.40;101665.47;4889518;29;20040;-81
2024/02/19 01:31:27;;;;;;;76.65;45.38;;;;;;;12.83;69.54;101677.69;4894199;29;21348;-81
2024/02/19 01:34:19;;;;;;;59.87;33.97;;;;;;;12.83;69.90;101687.78;4898269;29;20044;-82
2024/02/19 01:37:07;;;;;;;77.00;45.50;;;;;;;12.81;69.06;101679.91;4887447;29;20036;-80
2024/02/19 01:40:01;;;;;;;72.82;42.30;;;;;;;12.74;69.56;101668.59;4891957;29;20044;-81
2024/02/19 01:43:09;;;;;;;69.73;41.43;;;;;;;12.96;69.05;101650.63;4883243;29;20048;-82
2024/02/19 01:46:04;;;;;;;70.35;41.35;;;;;;;13.03;68.28;101632.72;4879829;29;20284;-82
2024/02/19 01:48:59;;;;;;;53.10;32.22;;;;;;;12.99;67.97;101631.72;4866317;29;20041;-82
2024/02/19 01:51:54;;;;;;;65.32;41.25;;;;;;;13.01;67.84;101631.41;4895249;29;20037;-80
2024/02/19 01:54:46;;;;;;;64.43;39.65;;;;;;;13.02;67.92;101641.22;4883063;29;20068;-81
2024/02/19 01:57:41;;;;;;;51.83;32.30;;;;;;;12.78;68.77;101645.03;4896204;29;20056;-81
2024/02/19 02:00:36;;;;;;;57.38;33.75;;;;;;;12.67;70.40;101637.38;4891484;29;20426;-82
2024/02/19 02:03:32;;;;;;;62.20;39.00;;;;;;;12.71;69.00;101646.56;4902389;29;20045;-81
2024/02/19 02:06:27;;;;;;;70.57;41.22;;;;;;;12.52;69.28;101654.06;4895305;29;20037;-81
2024/02/19 02:09:19;;;;;;;63.08;39.38;;;;;;;12.40;69.84;101657.31;4880314;29;20447;-81
2024/02/19 02:12:11;;;;;;;73.30;41.30;;;;;;;12.43;70.76;101651.25;4884774;29;20422;-80
2024/02/19 02:15:06;;;;;;;71.03;41.58;;;;;;;12.49;69.81;101643.78;4882767;29;20048;-80
2024/02/19 02:18:01;;;;;;;65.47;39.17;;;;;;;12.52;70.71;101643.97;4889599;29;20044;-81
2024/02/19 02:20:55;;;;;;;65.22;38.30;;;;;;;12.80;69.99;101634.59;4860924;29;20045;-80
2024/02/19 02:23:48;;;;;;;59.67;36.03;;;;;;;12.83;69.82;101635.94;4888490;29;20494;-81
2024/02/19 02:26:43;;;;;;;58.65;36.13;;;;;;;12.78;69.42;101638.75;4872457;29;20033;-81
2024/02/19 02:29:35;;;;;;;;;;;;;;;12.60;68.83;101639.69;4864622;29;20045;-81
2024/02/19 02:32:29;;;;;;;59.50;35.67;;;;;;;12.68;68.84;101628.88;4894027;29;19924;-81
2024/02/19 02:35:24;;;;;;;66.60;40.47;;;;;;;12.51;69.44;101641.53;4892542;29;20044;-81
2024/02/19 02:38:18;;;;;;;71.53;37.40;;;;;;;12.42;69.65;101650.44;4888122;29;20041;-81
2024/02/19 02:41:13;;;;;;;67.93;35.85;;;;;;;12.41;70.16;101653.47;4878254;29;20041;-81
2024/02/19 02:44:08;;;;;;;67.93;40.72;;;;;;;12.46;69.34;101655.28;4886210;29;20052;-81
2024/02/19 02:47:03;;;;;;;71.85;40.90;;;;;;;12.55;68.93;101662.44;4904941;29;20041;-81
2024/02/19 02:49:57;;;;;;;53.33;32.57;;;;;;;12.58;69.14;101656.41;4903577;29;20057;-80
2024/02/19 02:52:50;;;;;;;;;;;;;;;12.59;68.94;101655.28;4888123;29;20285;-81
2024/02/19 02:55:42;;;;;;;;;;;;;;;12.50;68.96;101651.63;4876318;29;19923;-80
2024/02/19 02:58:34;;;;;;;;;;;;;;;12.51;69.38;101645.06;4899245;29;20293;-79
2024/02/19 03:01:32;;;;;;;;;;;;;;;12.49;69.46;101633.69;4892963;29;19920;-79
2024/02/19 03:04:24;;;;;;;;;;;;;;;12.54;69.68;101627.31;4898413;29;19915;-80
2024/02/19 03:07:13;;;;;;;;;;;;;;;12.51;69.64;101615.06;4887109;29;19916;-79
2024/02/19 03:10:05;;;;;;;;;;;;;;;12.44;69.58;101610.00;4885012;29;19919;-80
2024/02/19 03:12:57;;;;;;;;;;;;;;;12.27;70.88;101615.31;4887815;29;19924;-80
2024/02/19 03:15:49;;;;;;;;;;;;;;;12.23;70.91;101618.94;4898582;29;19919;-79
2024/02/19 03:18:41;;;;;;;;;;;;;;;12.31;71.17;101629.94;4895070;29;19919;-80
2024/02/19 03:21:33;;;;;;;;;;;;;;;12.34;71.21;101632.06;4909107;29;19919;-81
2024/02/19 03:24:25;;;;;;;;;;;;;;;12.43;70.31;101635.69;4894719;29;19915;-81
2024/02/19 03:27:17;;;;;;;;;;;;;;;12.35;70.19;101621.94;4893094;29;19920;-80
2024/02/19 03:30:09;;;;;;;;;;;;;;;12.34;69.90;101625.81;4901447;29;19915;-80
2024/02/19 03:33:01;;;;;;;;;;;;;;;12.22;70.16;101628.25;4885535;29;19920;-82
2024/02/19 03:35:53;;;;;;;;;;;;;;;12.20;71.07;101628.53;4885290;29;19920;-82
2024/02/19 03:38:42;;;;;;;;;;;;;;;12.19;70.81;101624.19;4879086;29;19916;-82
2024/02/19 03:41:34;;;;;;;;;;;;;;;12.15;70.64;101608.72;4883049;29;19916;-81
2024/02/19 03:44:26;;;;;;;;;;;;;;;12.09;71.18;101618.94;4906654;29;19933;-81
2024/02/19 03:47:18;;;;;;;;;;;;;;;12.27;70.80;101625.41;4903248;29;19919;-81
2024/02/19 03:50:10;;;;;;;;;;;;;;;12.19;70.37;101618.72;4887840;29;19916;-81
2024/02/19 03:53:02;;;;;;;;;;;;;;;12.14;70.67;101618.84;4891747;29;19916;-80
2024/02/19 03:55:54;;;;;;;;;;;;;;;12.37;69.99;101627.91;4878482;29;19924;-80
2024/02/19 03:58:44;;;;;;;;;;;;;;;12.17;70.52;101623.69;4894932;29;19920;-80
2024/02/19 04:01:36;;;;;;;;;;;;;;;12.11;70.35;101619.44;4883167;29;20305;-81
2024/02/19 04:04:28;;;;;;;;;;;;;;;12.14;69.95;101634.41;4892754;29;19916;-80
2024/02/19 04:07:20;;;;;;;;;;;;;;;12.02;70.33;101628.63;4890430;29;19915;-81
2024/02/19 04:10:12;;;;;;;;;;;;;;;11.96;70.09;101636.91;4899413;29;19919;-81
2024/02/19 04:13:04;;;;;;;;;;;;;;;11.91;70.99;101628.84;4884256;29;19927;-80
2024/02/19 04:15:56;;;;;;;;;;;;;;;11.94;71.04;101630.94;4900344;29;19919;-81
2024/02/19 04:18:46;;;;;;;;;;;;;;;11.97;71.03;101630.34;4878555;29;19919;-79
2024/02/19 04:21:43;;;;;;;;;;;;;;;11.97;71.09;101633.09;4865113;29;19919;-80
2024/02/19 04:24:35;;;;;;;;;;;;;;;12.04;70.99;101624.50;4875258;29;19915;-80
2024/02/19 04:27:27;;;;;;;;;;;;;;;12.01;71.08;101616.94;4873400;29;19923;-79
2024/02/19 04:30:19;;;;;;;;;;;;;;;12.08;70.95;101609.16;4886589;29;19919;-79
2024/02/19 04:33:11;;;;;;;;;;;;;;;12.10;71.17;101604.19;4889547;29;19916;-80
2024/02/19 04:36:03;;;;;;;;;;;;;;;12.07;70.41;101602.09;4887874;29;19919;-79
2024/02/19 04:38:55;;;;;;;;;;;;;;;11.90;70.31;101591.78;4886054;29;19919;-79
2024/02/19 04:41:47;;;;;;;;;;;;;;;11.71;71.44;101596.50;4883879;29;19915;-79
2024/02/19 04:44:38;;;;;;;;;;;;;;;11.80;70.73;101597.44;4897680;29;19915;-79
2024/02/19 04:47:30;;;;;;;;;;;;;;;11.69;70.42;101604.13;4892414;29;19920;-79
2024/02/19 04:50:22;;;;;;;;;;;;;;;11.56;71.27;101610.38;4882206;29;19916;-78
2024/02/19 04:53:17;;;;;;;;;;;;;;;11.56;71.29;101597.56;4881839;29;20313;-79
2024/02/19 04:56:09;;;;;;;;;;;;;;;11.61;71.01;101612.22;4883119;29;19920;-77
2024/02/19 04:59:01;;;;;;;;;;;;;;;11.71;70.56;101618.28;4896347;29;19915;-78
2024/02/19 05:01:53;;;;;;;;;;;;;;;11.64;70.93;101617.03;4878165;29;19919;-80
2024/02/19 05:04:42;;;;;;;;;;;;;;;11.52;70.57;101620.28;4883287;29;20399;-79
2024/02/19 05:07:34;;;;;;;;;;;;;;;11.55;70.54;101606.03;4870032;29;19915;-80
2024/02/19 05:10:24;;;;;;;;;;;;;;;11.63;70.37;101597.16;4875754;29;19919;-80
2024/02/19 05:13:16;;;;;;;;;;;;;;;11.64;70.75;101596.06;4880953;29;20301;-79
2024/02/19 05:16:07;;;;;;;;;;;;;;;11.54;70.34;101604.41;4886090;29;19923;-79
2024/02/19 05:18:59;;;;;;;;;;;;;;;11.51;69.82;101608.56;4884002;29;19916;-79
2024/02/19 05:21:51;;;;;;;;;;;;;;;11.47;70.51;101606.75;4890608;29;19920;-79
2024/02/19 05:24:44;;;;;;;;;;;;;;;11.55;70.12;101608.75;4881528;29;19915;-78
2024/02/19 05:27:34;;;;;;;;;;;;;;;11.56;70.13;101613.09;4894057;29;19915;-79
2024/02/19 05:30:26;;;;;;;;;;;;;;;11.50;69.53;101606.94;4869146;29;20465;-79
2024/02/19 05:33:21;;;;;;;;;;;;;;;11.36;70.03;101600.66;4887631;29;19920;-79
2024/02/19 05:36:13;;;;;;;;;;;;;;;11.29;70.80;101600.22;4891191;29;20293;-79
2024/02/19 05:39:05;;;;;;;;;;;;;;;11.33;70.82;101603.16;4886362;29;19915;-78
2024/02/19 05:41:57;;;;;;;;;;;;;;;11.39;70.19;101599.25;4873755;29;19915;-78
2024/02/19 05:44:49;;;;;;;;;;;;;;;11.34;70.38;101591.16;4881622;29;19915;-78
2024/02/19 05:47:40;;;;;;;;;;;;;;;11.37;70.25;101598.75;4896718;29;20384;-79
2024/02/19 05:50:32;;;;;;;;;;;;;;;11.37;70.19;101602.28;4888123;29;20381;-80
2024/02/19 05:53:24;;;;;;;;;;;;;;;11.34;70.00;101596.59;4895082;29;19919;-79
2024/02/19 05:56:16;;;;;;;;;;;;;;;11.36;70.50;101597.13;4866617;29;20293;-79
2024/02/19 05:59:08;;;;;;;;;;;;;;;11.37;70.63;101598.75;4889224;29;19920;-80
2024/02/19 06:02:00;;;;;;;;;;;;;;;11.42;70.67;101612.28;4902542;29;19900;-80
2024/02/19 06:04:54;;;;;;;;;;;;;;;11.44;70.25;101610.03;4892122;29;19915;-79
2024/02/19 06:07:46;;;;;;;;;;;;;;;11.39;69.90;101615.56;4882273;29;19919;-80
2024/02/19 06:10:38;;;;;;;;;;;;;;;11.45;69.99;101619.84;4894669;29;19919;-78
2024/02/19 06:13:30;;;;;;;;;;;;;;;11.32;70.16;101607.00;4882037;29;19919;-78
2024/02/19 06:16:22;;;;;;;;;;;;;;;11.26;70.84;101603.56;4890764;29;20312;-80
2024/02/19 06:19:14;;;;;;;;;;;;;;;11.32;70.53;101605.09;4878229;29;19916;-79
2024/02/19 06:22:05;;;;;;;;;;;;;;;10.52;72.74;101599.75;4891040;29;19919;-79
2024/02/19 06:24:57;;;;;;;;;;;;;;;10.33;74.44;101600.84;4873591;29;19919;-80
2024/02/19 06:27:49;;;;;;;;;;;;;;;10.13;75.60;101604.59;4894020;29;19915;-79
2024/02/19 06:30:36;;;;;;;;;;;;;;;9.55;77.38;101601.97;4902594;29;19907;-80
2024/02/19 06:33:26;;;;;;;;;;;;;;;9.48;78.71;101606.13;4895032;29;19915;-79
2024/02/19 06:36:21;;;;;;;;;;;;;;;9.37;79.11;101611.66;4894252;29;19920;-79
2024/02/19 06:39:13;;;;;;;;;;;;;;;9.37;79.56;101614.34;4868706;29;19920;-78
2024/02/19 06:42:05;;;;;;;;;;;;;;;9.47;79.59;101601.78;4898948;29;19919;-78
2024/02/19 06:44:57;;;;;;;;;;;;;;;9.51;79.21;101600.09;4898827;29;19916;-78
2024/02/19 06:47:49;;;;;;;;;;;;;;;9.52;79.39;101604.44;4890910;29;19919;-78
2024/02/19 06:50:41;;;;;;;;;;;;;;;9.49;79.82;101610.47;4879086;29;20337;-79
2024/02/19 06:53:33;;;;;;;;;;;;;;;9.33;81.78;101613.31;4882009;29;19915;-79
2024/02/19 06:56:24;;;;;;;;;;;;;;;9.50;80.66;101620.22;4882009;29;19919;-78
2024/02/19 06:59:14;;;;;;;;;;;;;;;9.67;78.77;101628.75;4886969;29;19915;-78
2024/02/19 07:02:06;;;;;;;;;;;;;;;9.79;77.48;101634.59;4891738;29;19919;-78
2024/02/19 07:04:56;;;;;;;;;;;;;;;9.96;77.19;101626.78;4871873;29;19920;-79
2024/02/19 07:07:48;;;;;;;;;;;;;;;10.05;76.81;101635.97;4884899;29;19919;-79
2024/02/19 07:10:40;;;;;;;;;;;;;;;10.13;76.73;101632.59;4893778;29;19919;-78
2024/02/19 07:13:29;;;;;;;;;;;;;;;10.19;75.78;101636.09;4893298;29;19915;-78
2024/02/19 07:16:21;;;;;;;;;;;;;;;10.32;74.79;101645.44;4888041;29;19927;-78
2024/02/19 07:19:13;;;;;;;;;;;;;;;10.50;73.27;101653.66;4889454;29;19915;-79
2024/02/19 07:22:05;;;;;;;;;;;;;;;10.42;74.21;101656.19;4901360;29;20317;-79
2024/02/19 07:24:57;;;;;;;;;;;;;;;10.71;74.79;101646.84;4877201;29;19915;-79
2024/02/19 07:27:49;;;;;;;;;;;;;;;10.89;74.12;101656.09;4898662;29;19919;-79
2024/02/19 07:30:42;;;;;;;;;;;;;;;10.92;74.41;101644.63;4870643;29;19919;-79
2024/02/19 07:33:34;;;;;;;;;;;;;;;11.04;74.07;101645.00;4898808;29;19916;-79
2024/02/19 07:36:26;;;;;;;;;;;;;;;11.28;72.98;101658.50;4898730;29;19919;-78
2024/02/19 07:39:18;;;;;;;;;;;;;;;11.43;72.46;101657.44;4887110;29;20309;-80
2024/02/19 07:42:10;;;;;;;;;;;;;;;11.57;71.99;101647.41;4887215;29;19919;-79
2024/02/19 07:45:02;;;;;;;;;;;;;;;11.68;72.25;101661.69;4898582;29;19915;-77
2024/02/19 07:47:54;;;;;;;;;;;;;;;11.90;71.76;101659.09;4882914;29;19915;-76
2024/02/19 07:50:41;;;;;;;;;;;;;;;11.92;72.34;101657.72;4901197;29;20381;-79
2024/02/19 07:53:33;;;;;;;;;;;;;;;12.19;70.80;101656.13;4893539;29;19924;-79
2024/02/19 07:56:26;;;;;;;;;;;;;;;12.37;70.82;101647.81;4896028;29;20305;-77
2024/02/19 07:59:18;;;;;;;;;;;;;;;12.51;70.31;101642.34;4895776;29;19919;-77
2024/02/19 08:02:11;;;;;;;;;;;;;;;12.63;71.33;101650.81;4884025;29;19919;-77
2024/02/19 08:05:03;;;;;;;;;;;;;;;12.93;69.88;101654.81;4897917;29;19919;-78
2024/02/19 08:07:55;;;;;;;;;;;;;;;13.00;68.23;101666.13;4896044;29;19923;-80
2024/02/19 08:10:58;;;;;;;;;;;;;;;12.97;66.84;101663.16;4883683;29;20285;-83
2024/02/19 08:13:50;;;;;;;;;;;;;;;13.01;66.59;101661.44;4885680;29;19916;-82
2024/02/19 08:16:39;;;;;;;;;;;;;;;13.41;68.34;101655.03;4895781;29;19919;-79
2024/02/19 08:19:33;;;;;;;;;;;;;;;13.83;66.41;101652.88;4908286;29;20001;-79
2024/02/19 08:22:25;;;;;;;;;;;;;;;13.54;67.44;101643.25;4894056;29;19923;-79
2024/02/19 08:25:15;;;;;;;;;;;;;;;13.67;67.45;101641.53;4899117;29;19915;-80
2024/02/19 08:28:07;;;;;;;;;;;;;;;13.87;66.75;101640.19;4884064;29;19919;-79
2024/02/19 08:30:57;;;;;;;;;;;;;;;13.30;70.25;101648.22;4894997;29;19924;-79
2024/02/19 08:33:54;;;;;;;;;;;;;;;13.42;71.25;101645.72;4910064;29;20389;-79
2024/02/19 08:36:46;;;;;;;;;;;;;;;13.02;72.61;101647.50;4876180;29;19923;-80
2024/02/19 08:39:38;;;;;;;;;;;;;;;13.39;70.01;101653.75;4887374;29;19915;-80
2024/02/19 08:42:30;;;;;;;;;;;;;;;14.43;66.58;101655.88;4904781;29;20308;-82
2024/02/19 08:45:22;;;;;;;;;;;;;;;14.91;64.02;101659.34;4879523;29;19919;-83
2024/02/19 08:48:14;;;;;;;;;;;;;;;14.87;63.73;101655.66;4899288;29;19927;-82
2024/02/19 08:51:06;;;;;;;;;;;;;;;14.59;64.41;101650.75;4891258;29;19915;-82
2024/02/19 08:53:59;;;;;;;;;;;;;;;14.74;64.13;101658.53;4899151;29;19923;-82
2024/02/19 08:56:51;;;;;;;;;;;;;;;14.76;64.32;101654.34;4887454;29;19919;-81
2024/02/19 08:59:45;;;;;;;;;;;;;;;15.02;64.39;101645.34;4890117;29;19916;-81
2024/02/19 09:02:37;;;;;;;;;;;;;;;15.14;61.29;101631.78;4889789;29;19919;-81
2024/02/19 09:05:30;;;;;;;;;;;;;;;15.51;60.66;101633.03;4888241;29;19916;-82
2024/02/19 09:08:22;;;;;;;;;;;;;;;15.52;61.22;101631.94;4888259;29;19919;-81
2024/02/19 09:11:14;;;;;;;;;;;;;;;14.96;62.01;101633.75;4892842;29;19920;-81
2024/02/19 09:14:04;;;;;;;;;;;;;;;15.03;63.33;101639.56;4889847;29;19919;-79
2024/02/19 09:16:56;;;;;;;;;;;;;;;15.39;61.90;101639.97;4883708;29;19923;-81
2024/02/19 09:19:45;;;;;;;;;;;;;;;15.41;61.71;101634.19;4898359;29;19923;-80
2024/02/19 09:22:37;;;;;;;;;;;;;;;15.51;61.97;101642.09;4887462;29;19919;-80
2024/02/19 09:25:29;;;;;;;;;;;;;;;16.14;59.63;101644.00;4901765;29;19919;-80
2024/02/19 09:28:21;;;;;;;;;;;;;;;16.06;61.52;101638.53;4878244;29;19915;-80
2024/02/19 09:31:14;;;;;;;;;;;;;;;16.47;58.65;101632.34;4887625;29;19920;-81
2024/02/19 09:34:06;;;;;;;;;;;;;;;16.50;58.38;101649.00;4879067;29;19915;-78
2024/02/19 09:36:59;;;;;;;;;;;;;;;16.51;57.88;101647.81;4884083;29;19919;-79
2024/02/19 09:39:51;;;;;;;;;;;;;;;15.09;62.65;101645.66;4867341;29;19927;-77
2024/02/19 09:42:43;;;;;;;;;;;;;;;14.82;64.04;101647.59;4884394;29;19919;-79
2024/02/19 09:45:40;;;;;;;;;;;;;;;14.58;65.39;101649.94;4888414;29;19923;-78
2024/02/19 09:48:33;;;;;;;;;;;;;;;14.36;66.35;101645.41;4892559;29;20302;-79
2024/02/19 09:51:26;;;;;;;;;;;;;;;14.66;65.93;101645.63;4896260;29;19915;-77
2024/02/19 09:54:16;;;;;;;;;;;;;;;14.64;64.83;101651.41;4880709;29;19915;-78
2024/02/19 09:57:09;;;;;;;;;;;;;;;14.62;64.36;101647.41;4888246;29;19919;-78
2024/02/19 10:00:03;;;;;;;;;;;;;;;14.63;64.46;101640.81;4892227;29;19919;-78
2024/02/19 10:02:54;;;;;;;;;;;;;;;14.83;63.96;101640.97;4889571;29;20370;-78
2024/02/19 10:05:45;;;;;;;;;;;;;;;14.79;64.03;101653.69;4877717;29;19923;-78
2024/02/19 10:08:35;;;;;;;;;;;;;;;14.85;63.92;101651.63;4882194;29;20297;-78
2024/02/19 10:11:27;;;;;;;;;;;;;;;14.80;63.38;101647.09;4895856;29;19916;-79
2024/02/19 10:14:19;;;;;;;;;;;;;;;14.92;63.19;101643.75;4879018;29;19920;-78
2024/02/19 10:17:11;;;;;;;;;;;;;;;15.01;63.30;101646.47;4895548;29;20413;-77
2024/02/19 10:20:03;;;;;;;;;;;;;;;15.20;62.84;101638.72;4885408;29;19915;-78
2024/02/19 10:22:55;;;;;;;;;;;;;;;15.19;62.72;101639.84;4895696;29;19919;-78
2024/02/19 10:25:47;;;;;;;;;;;;;;;15.30;62.01;101644.69;4881938;29;19916;-78
2024/02/19 10:28:39;;;;;;;;;;;;;;;15.34;61.92;101645.63;4884551;29;19919;-78
2024/02/19 10:31:31;;;;;;;;;;;;;;;15.49;62.04;101649.03;4881562;29;19915;-78
2024/02/19 10:34:22;;;;;;;;;;;;;;;15.52;61.25;101642.91;4885964;29;20397;-78
2024/02/19 10:37:14;;;;;;;;;;;;;;;15.68;61.33;101633.03;4895177;29;19919;-78
2024/02/19 10:40:04;;;;;;;;;;;;;;;15.64;61.23;101637.56;4882076;29;20393;-78
2024/02/19 10:42:55;;;;;;;;;;;;;;;15.86;60.69;101645.56;4888567;29;19919;-78
2024/02/19 10:45:48;;;;;;;;;;;;;;;16.00;60.64;101640.66;4883459;29;19915;-77
2024/02/19 10:48:37;;;;;;;;;;;;;;;15.99;60.42;101635.50;4894233;29;20305;-78
2024/02/19 10:51:32;;;;;;;;;;;;;;;16.09;60.03;101635.97;4881412;29;20397;-79
2024/02/19 10:54:24;;;;;;;;;;;;;;;15.99;59.92;101628.09;4896930;29;20301;-78
2024/02/19 10:57:19;;;;;;;;;;;;;;;15.90;59.09;101624.56;4897604;29;19920;-78
2024/02/19 11:00:11;;;;;;;;;;;;;;;16.09;59.71;101622.25;4884927;29;20320;-79
2024/02/19 11:03:06;;;;;;;;;;;;;;;16.15;58.97;101620.88;4886145;29;19919;-78
2024/02/19 11:06:01;;;;;;;;;;;;;;;16.30;58.53;101616.81;4889193;29;19919;-78
2024/02/19 11:08:54;;;;;;;;;;;;;;;16.52;58.29;101616.50;4880100;29;19919;-78
2024/02/19 11:11:56;;;;;;;;;;;;;;;16.66;57.39;101603.31;4887009;29;19920;-78
2024/02/19 11:14:50;;;;;;;;;;;;;;;16.81;56.59;101607.41;4900236;29;19919;-78
2024/02/19 11:17:38;;;;;;;;;;;;;;;16.90;56.67;101608.19;4899259;29;19920;-78
2024/02/19 11:20:33;;;;;;;;;;;;;;;16.91;56.24;101600.75;4884679;29;19923;-79
2024/02/19 11:23:26;;;;;;;;;;;;;;;17.03;56.30;101595.28;4882512;29;19916;-78
2024/02/19 11:26:18;;;;;;;;;;;;;;;17.21;56.10;101582.19;4885625;29;19919;-79
2024/02/19 11:29:06;;;;;;;;;;;;;;;17.05;55.50;101584.75;4885591;29;19915;-79
2024/02/19 11:32:04;;;;;;;;;;;;;;;16.96;54.80;101573.06;4904346;29;19916;-79
2024/02/19 11:34:56;;;;;;;;;;;;;;;17.02;55.60;101572.50;4904196;29;20014;-79
2024/02/19 11:37:48;;;;;;;;;;;;;;;17.11;55.08;101561.44;4889852;29;19923;-79
2024/02/19 11:40:40;;;;;;;;;;;;;;;17.20;55.47;101555.84;4900997;29;19915;-79
2024/02/19 11:43:32;;;;;;;;;;;;;;;17.22;54.96;101559.06;4890028;29;20556;-79
2024/02/19 11:46:22;;;;;;;;;;;;;;;17.35;55.40;101560.69;4900523;29;19919;-79
2024/02/19 11:49:15;;;;;;;;;;;;;;;17.44;55.38;101545.69;4889327;29;19920;-79
2024/02/19 11:52:05;;;;;;;;;;;;;;;17.13;56.93;101539.09;4893687;29;19919;-78
2024/02/19 11:54:57;;;;;;;;;;;;;;;16.95;56.83;101543.97;4893469;29;20293;-79
2024/02/19 11:57:49;;;;;;;;;;;;;;;16.88;56.86;101529.97;4884129;29;19927;-78
2024/02/19 12:00:42;;;;;;;;;;;;;;;16.91;56.98;101535.59;4888316;29;19915;-78
2024/02/19 12:03:34;;;;;;;;;;;;;;;17.07;57.01;101535.75;4882438;29;19920;-78
2024/02/19 12:06:27;;;;;;;;;;;;;;;17.08;56.15;101538.16;4885082;29;19916;-79
2024/02/19 12:09:16;;;;;;;;;;;;;;;17.25;56.40;101528.94;4880448;29;19915;-80
2024/02/19 12:12:11;;;;;;;;;;;;;;;17.13;54.82;101528.09;4890917;29;19915;-79
2024/02/19 12:15:00;;;;;;;;;;;;;;;17.23;55.47;101528.47;4888456;29;20495;-79
2024/02/19 12:17:52;;;;;;;;;;;;;;;17.26;54.66;101522.31;4899716;29;19923;-80
2024/02/19 12:20:42;;;;;;;;;;;;;;;17.26;55.00;101518.75;4885688;29;19919;-79
2024/02/19 12:23:34;;;;;;;;;;;;;;;17.24;54.92;101518.28;4881870;29;19916;-79
2024/02/19 12:26:26;;;;;;;;;;;;;;;17.52;54.75;101511.78;4880927;29;19916;-79
2024/02/19 12:29:18;;;;;;;;;;;;;;;17.41;55.37;101512.59;4900016;29;19919;-78
2024/02/19 12:32:10;;;;;;;;;;;;;;;17.62;54.54;101502.34;4900837;29;19919;-79
2024/02/19 12:35:02;;;;;;;;;;;;;;;17.68;54.13;101505.63;4887869;29;19915;-79
2024/02/19 12:37:54;;;;;;;;;;;;;;;17.57;53.75;101510.78;4898231;29;19919;-79
2024/02/19 12:40:46;;;;;;;;;;;;;;;17.40;53.79;101510.97;4899262;29;19915;-81
2024/02/19 12:43:36;;;;;;;;;;;;;;;17.56;53.74;101511.91;4899129;29;19923;-78
2024/02/19 12:46:25;;;;;;;;;;;;;;;17.55;53.56;101513.06;4887610;29;20385;-80
2024/02/19 12:49:17;;;;;;;;;;;;;;;17.56;52.71;101514.66;4875769;29;19916;-79
2024/02/19 12:52:04;;;;;;;;;;;;;;;17.54;53.46;101505.94;4888745;29;19919;-80
2024/02/19 12:54:57;;;;;;;;;;;;;;;17.54;53.14;101505.94;4877245;29;20010;-82
2024/02/19 12:57:46;;;;;;;;;;;;;;;17.62;53.38;101505.09;4875358;29;19928;-79
2024/02/19 13:00:33;;;;;;;;;;;;;;;17.65;53.50;101506.31;4894757;29;19915;-80
2024/02/19 13:03:22;;;;;;;;;;;;;;;17.73;53.00;101503.47;4880005;29;19919;-79
2024/02/19 13:06:14;;;;;;;;;;;;;;;17.84;52.61;101501.03;4889609;29;19919;-79
2024/02/19 13:09:06;;;;;;;;;;;;;;;17.98;52.09;101497.97;4877864;29;19919;-79
2024/02/19 13:11:58;;;;;;;;;;;;;;;18.01;52.20;101497.25;4887081;29;19923;-79
2024/02/19 13:14:47;;;;;;;;;;;;;;;18.12;51.46;101488.19;4871394;29;19923;-81
2024/02/19 13:17:39;;;;;;;;;;;;;;;18.19;51.73;101488.38;4894726;29;19927;-80
2024/02/19 13:20:31;;;;;;;;;;;;;;;18.23;51.79;101491.25;4893684;29;20420;-80
2024/02/19 13:23:18;;;;;;;;;;;;;;;18.10;51.20;101489.66;4896531;29;19916;-80
2024/02/19 13:26:10;;;;;;;;;;;;;;;18.18;51.01;101480.50;4881465;29;19923;-80
2024/02/19 13:29:02;;;;;;;;;;;;;;;18.20;50.70;101476.22;4878403;29;19919;-81
2024/02/19 13:31:54;;;;;;;;;;;;;;;18.21;50.27;101491.59;4868475;29;19915;-78
2024/02/19 13:34:44;;;;;;;;;;;;;;;18.45;49.77;101484.41;4883481;29;20385;-79
2024/02/19 13:37:33;;;;;;;;;;;;;;;18.44;48.57;101486.34;4880583;29;19919;-79
2024/02/19 13:40:25;;;;;;;;;;;;;;;18.28;47.88;101491.03;4874437;29;19919;-78
2024/02/19 13:43:15;;;;;;;;;;;;;;;18.37;47.06;101475.16;4886576;29;20386;-79
2024/02/19 13:46:07;;;;;;;;;;;;;;;18.33;48.17;101477.00;4878659;29;20297;-78
2024/02/19 13:49:03;;;;;;;;;;;;;;;18.42;48.69;101483.16;4891023;29;20389;-78
2024/02/19 13:51:58;;;;;;;;;;;;;;;18.48;47.18;101479.03;4884924;29;20452;-78
2024/02/19 13:54:47;;;;;;;;;;;;;;;18.40;48.23;101488.22;4888244;29;19919;-78
2024/02/19 13:57:40;;;;;;;;;;;;;;;18.43;48.23;101484.78;4895181;29;19928;-78
2024/02/19 14:00:32;;;;;;;;;;;;;;;18.27;49.96;101489.41;4884688;29;20240;-78
2024/02/19 14:03:24;;;;;;;;;;;;;;;18.49;50.36;101480.59;4882354;29;19916;-79
2024/02/19 14:06:16;;;;;;;;;;;;;;;18.44;49.67;101478.09;4888228;29;20390;-78
2024/02/19 14:09:05;;;;;;;;;;;;;;;18.38;48.78;101479.53;4891088;29;19919;-78
2024/02/19 14:11:57;;;;;;;;;;;;;;;18.35;49.54;101480.19;4884235;29;19930;-78
2024/02/19 14:14:49;;;;;;;;;;;;;;;18.23;49.15;101481.06;4869209;29;19923;-77
2024/02/19 14:17:39;;;;;;;;;;;;;;;18.20;49.52;101478.16;4899159;29;20312;-78
2024/02/19 14:20:28;;;;;;;;;;;;;;;18.30;49.49;101489.50;4903360;29;19920;-78
2024/02/19 14:23:21;;;;;;;;;;;;;;;18.27;49.30;101481.94;4894142;29;19923;-79